Iuka, Kansas
Current Conditions -  °F | °C
As of 8:15 PM on Friday 19 Dec 2014 (Local Time) from KPTT Reporting Station
Scattered Clouds Scattered Clouds  
Wind Chill: 28°   Ceiling: Unl
Heat Index: 34°   Visibility: 10mi
Dew Point: 32°   Wind: 7mph
Humidity: 93%   Direction: 230°SW
Pressure: 30.16"   Gusts: NA
Location:  37.73°N, 98.74°W
Report Text: KPTT 200215Z AUTO 23006KT 10SM SCT013 01/00 A3016 RMK AO2
Loading
Personal Weather Stations






























Interactive Weather Map New forecast layout! Learn more

10-Day Weather Forecast

Advertisements
Track Severe Weather on mobile